Time;durP1;ratioP1;P1;durP2;ratioP2;P2;SDS_P1;SDS_P2;PMS_P1;PMS_P2;Temp;Humidity;BMP_temperature;BMP_pressure;BME280_temperature;BME280_humidity;BME280_pressure;Samples;Min_cycle;Max_cycle;Signal;HPM_P1;HPM_P2
2023/08/09 00:01:34;;;;;;;6.25;3.13;;;;;;;;;;5031024;28;20045;-67
2023/08/09 00:04:01;;;;;;;6.53;2.92;;;;;;;;;;5031592;28;20056;-67
2023/08/09 00:06:28;;;;;;;4.38;2.88;;;;;;;;;;5031006;28;20495;-67
2023/08/09 00:08:54;;;;;;;8.35;2.80;;;;;;;;;;5030937;28;20045;-66
2023/08/09 00:11:21;;;;;;;7.03;3.30;;;;;;;;;;5030293;28;20132;-67
2023/08/09 00:13:47;;;;;;;6.05;2.92;;;;;;;;;;5031116;28;20410;-67
2023/08/09 00:16:15;;;;;;;5.07;3.15;;;;;;;;;;5030627;28;20578;-66
2023/08/09 00:18:42;;;;;;;5.00;2.85;;;;;;;;;;5031121;28;20050;-67
2023/08/09 00:21:08;;;;;;;5.05;3.60;;;;;;;;;;5030891;28;20049;-66
2023/08/09 00:23:35;;;;;;;4.38;3.00;;;;;;;;;;5030402;28;20049;-67
2023/08/09 00:26:02;;;;;;;5.03;2.83;;;;;;;;;;5030506;28;20219;-67
2023/08/09 00:28:28;;;;;;;4.80;2.85;;;;;;;;;;5030471;28;20049;-67
2023/08/09 00:30:55;;;;;;;5.13;3.00;;;;;;;;;;5030690;28;20076;-66
2023/08/09 00:33:23;;;;;;;4.25;3.10;;;;;;;;;;5030992;28;20484;-67
2023/08/09 00:35:49;;;;;;;5.47;3.20;;;;;;;;;;5030634;28;20054;-67
2023/08/09 00:38:16;;;;;;;4.28;3.00;;;;;;;;;;5030411;28;20067;-66
2023/08/09 00:40:42;;;;;;;5.78;2.83;;;;;;;;;;5030256;28;20072;-67
2023/08/09 00:43:09;;;;;;;5.03;2.67;;;;;;;;;;5030462;28;20535;-67
2023/08/09 00:45:36;;;;;;;7.15;2.58;;;;;;;;;;5030287;28;20049;-67
2023/08/09 00:48:03;;;;;;;6.60;2.83;;;;;;;;;;5030024;28;20041;-67
2023/08/09 00:50:31;;;;;;;5.80;2.78;;;;;;;;;;5030403;28;20563;-66
2023/08/09 00:52:59;;;;;;;5.10;2.80;;;;;;;;;;5030409;28;20049;-66
2023/08/09 00:55:26;;;;;;;7.95;2.80;;;;;;;;;;5030530;28;20054;-66
2023/08/09 00:57:53;;;;;;;5.95;2.70;;;;;;;;;;5030925;28;20045;-66
2023/08/09 01:00:20;;;;;;;3.50;2.35;;;;;;;;;;5029752;28;20046;-66
2023/08/09 01:02:46;;;;;;;6.80;3.22;;;;;;;;;;5030654;28;20041;-66
2023/08/09 01:05:13;;;;;;;3.17;2.13;;;;;;;;;;5030306;28;20480;-67
2023/08/09 01:07:49;;;;;;;3.03;2.10;;;;;;;;;;5030198;28;20080;-66
2023/08/09 01:10:22;;;;;;;2.42;2.17;;;;;;;;;;5029543;28;20495;-66
2023/08/09 01:12:54;;;;;;;4.28;2.28;;;;;;;;;;5030225;28;20053;-67
2023/08/09 01:15:23;;;;;;;4.90;2.38;;;;;;;;;;5029714;28;20495;-66
2023/08/09 01:17:53;;;;;;;3.33;2.03;;;;;;;;;;5029978;28;20423;-65
2023/08/09 01:20:22;;;;;;;6.20;2.20;;;;;;;;;;5031722;28;20049;-67
2023/08/09 01:22:57;;;;;;;5.22;2.65;;;;;;;;;;5034324;28;20045;-66
2023/08/09 01:25:25;;;;;;;3.30;2.22;;;;;;;;;;5033754;28;20064;-66
2023/08/09 01:27:52;;;;;;;3.90;2.35;;;;;;;;;;5033816;28;20128;-67
2023/08/09 01:30:19;;;;;;;6.10;2.30;;;;;;;;;;5033859;28;20045;-67
2023/08/09 01:32:46;;;;;;;3.67;2.33;;;;;;;;;;5033871;28;20052;-67
2023/08/09 01:35:13;;;;;;;3.72;2.60;;;;;;;;;;5033732;28;20053;-67
2023/08/09 01:37:47;;;;;;;7.68;2.28;;;;;;;;;;5033807;28;20132;-66
2023/08/09 01:40:17;;;;;;;4.88;2.33;;;;;;;;;;5033462;28;20056;-67
2023/08/09 01:42:46;;;;;;;5.82;2.38;;;;;;;;;;5034104;28;20112;-66
2023/08/09 01:45:14;;;;;;;4.47;2.10;;;;;;;;;;5033630;28;20041;-67
2023/08/09 01:47:42;;;;;;;4.72;2.35;;;;;;;;;;5033769;28;20396;-66
2023/08/09 01:50:18;;;;;;;3.67;2.30;;;;;;;;;;5033801;28;20049;-67
2023/08/09 01:52:45;;;;;;;3.53;2.30;;;;;;;;;;5033289;28;20041;-67
2023/08/09 01:55:17;;;;;;;6.47;2.28;;;;;;;;;;5033877;28;20499;-67
2023/08/09 01:57:45;;;;;;;2.47;1.65;;;;;;;;;;5032890;28;20049;-67
2023/08/09 02:00:15;;;;;;;2.83;2.10;;;;;;;;;;5033532;28;20415;-67
2023/08/09 02:02:42;;;;;;;4.30;2.08;;;;;;;;;;5033182;28;20049;-67
2023/08/09 02:05:09;;;;;;;2.88;2.20;;;;;;;;;;5033500;28;20052;-68
2023/08/09 02:07:36;;;;;;;3.42;1.98;;;;;;;;;;5033117;28;20128;-67
2023/08/09 02:10:03;;;;;;;4.25;1.98;;;;;;;;;;5033194;28;20045;-67
2023/08/09 02:12:29;;;;;;;3.75;1.95;;;;;;;;;;5033278;28;20490;-67
2023/08/09 02:14:57;;;;;;;5.38;2.15;;;;;;;;;;5033291;28;20049;-67
2023/08/09 02:17:24;;;;;;;3.40;2.05;;;;;;;;;;5033066;28;20163;-65
2023/08/09 02:19:51;;;;;;;3.13;1.95;;;;;;;;;;5033199;28;20049;-67
2023/08/09 02:22:18;;;;;;;2.70;2.00;;;;;;;;;;5033043;28;20350;-67
2023/08/09 02:24:44;;;;;;;3.33;2.20;;;;;;;;;;5032754;28;20515;-67
2023/08/09 02:27:11;;;;;;;2.92;1.98;;;;;;;;;;5033137;28;20144;-67
2023/08/09 02:29:38;;;;;;;3.60;2.00;;;;;;;;;;5032275;28;20051;-66
2023/08/09 02:32:06;;;;;;;4.57;2.30;;;;;;;;;;5032906;28;20046;-65
2023/08/09 02:34:33;;;;;;;3.45;2.20;;;;;;;;;;5032486;28;20053;-67
2023/08/09 02:37:00;;;;;;;2.88;2.20;;;;;;;;;;5032844;28;20049;-67
2023/08/09 02:39:27;;;;;;;5.60;2.22;;;;;;;;;;5032168;28;20049;-65
2023/08/09 02:41:53;;;;;;;3.35;2.20;;;;;;;;;;5033016;28;20052;-67
2023/08/09 02:44:20;;;;;;;5.30;2.50;;;;;;;;;;5032301;28;20046;-67
2023/08/09 02:46:46;;;;;;;3.42;2.47;;;;;;;;;;5032656;28;20046;-67
2023/08/09 02:49:14;;;;;;;4.60;2.28;;;;;;;;;;5032508;28;20160;-66
2023/08/09 02:51:41;;;;;;;4.15;2.08;;;;;;;;;;5032501;28;20045;-66
2023/08/09 02:54:07;;;;;;;3.33;2.10;;;;;;;;;;5032347;28;20071;-67
2023/08/09 02:56:34;;;;;;;4.88;2.20;;;;;;;;;;5032480;28;20056;-67
2023/08/09 02:59:01;;;;;;;4.28;2.20;;;;;;;;;;5032213;28;20041;-65
2023/08/09 03:01:29;;;;;;;3.58;2.20;;;;;;;;;;5032158;28;20474;-67
2023/08/09 03:03:55;;;;;;;2.85;1.83;;;;;;;;;;5032449;28;20063;-66
2023/08/09 03:06:24;;;;;;;2.40;2.17;;;;;;;;;;5031710;28;20046;-67
2023/08/09 03:08:52;;;;;;;2.53;2.15;;;;;;;;;;5032283;28;20058;-67
2023/08/09 03:11:21;;;;;;;5.25;2.10;;;;;;;;;;5031834;28;20061;-67
2023/08/09 03:13:47;;;;;;;3.95;2.25;;;;;;;;;;5032401;28;20046;-67
2023/08/09 03:16:14;;;;;;;4.47;2.17;;;;;;;;;;5031964;28;20052;-66
2023/08/09 03:18:40;;;;;;;3.13;2.08;;;;;;;;;;5032413;28;20045;-67
2023/08/09 03:21:08;;;;;;;4.22;2.25;;;;;;;;;;5031454;28;20052;-67
2023/08/09 03:23:36;;;;;;;5.38;2.58;;;;;;;;;;5032330;28;20045;-67
2023/08/09 03:26:03;;;;;;;3.95;2.40;;;;;;;;;;5031592;28;20059;-67
2023/08/09 03:28:30;;;;;;;2.80;2.10;;;;;;;;;;5031963;28;20057;-65
2023/08/09 03:30:56;;;;;;;3.47;2.03;;;;;;;;;;5031257;28;20474;-67
2023/08/09 03:33:23;;;;;;;4.30;2.55;;;;;;;;;;5031921;28;20480;-66
2023/08/09 03:35:50;;;;;;;2.42;2.20;;;;;;;;;;5031595;28;20049;-66
2023/08/09 03:38:17;;;;;;;4.53;2.22;;;;;;;;;;5031785;28;20053;-67
2023/08/09 03:40:45;;;;;;;3.03;1.90;;;;;;;;;;5031666;28;20045;-67
2023/08/09 03:43:11;;;;;;;4.00;2.53;;;;;;;;;;5030549;28;20410;-67
2023/08/09 03:45:38;;;;;;;5.57;2.30;;;;;;;;;;5031753;28;20071;-67
2023/08/09 03:48:05;;;;;;;3.00;2.17;;;;;;;;;;5031083;28;20041;-66
2023/08/09 03:50:32;;;;;;;3.75;2.20;;;;;;;;;;5031408;28;20120;-66
2023/08/09 03:52:58;;;;;;;3.78;1.95;;;;;;;;;;5031072;28;20055;-67
2023/08/09 03:55:25;;;;;;;4.10;2.15;;;;;;;;;;5031317;28;20057;-67
2023/08/09 03:57:53;;;;;;;5.72;2.30;;;;;;;;;;5031220;28;20140;-67
2023/08/09 04:00:22;;;;;;;4.47;2.40;;;;;;;;;;5031365;28;20051;-67
2023/08/09 04:02:49;;;;;;;4.15;2.13;;;;;;;;;;5030742;28;20507;-67
2023/08/09 04:05:16;;;;;;;2.95;2.25;;;;;;;;;;5031398;28;20041;-66
2023/08/09 04:07:43;;;;;;;4.78;2.38;;;;;;;;;;5030753;28;20064;-66
2023/08/09 04:10:10;;;;;;;3.92;2.15;;;;;;;;;;5030323;28;20055;-71
2023/08/09 04:12:37;;;;;;;4.68;2.45;;;;;;;;;;5030869;28;20478;-71
2023/08/09 04:15:06;;;;;;;5.13;2.63;;;;;;;;;;5030630;28;20052;-71
2023/08/09 04:17:33;;;;;;;3.58;2.53;;;;;;;;;;5031030;28;20047;-71
2023/08/09 04:19:59;;;;;;;4.32;2.53;;;;;;;;;;5030399;28;20468;-70
2023/08/09 04:22:26;;;;;;;4.90;2.20;;;;;;;;;;5031294;28;20136;-71
2023/08/09 04:24:52;;;;;;;3.50;2.45;;;;;;;;;;5030547;28;20055;-71
2023/08/09 04:27:19;;;;;;;6.05;2.28;;;;;;;;;;5030914;28;20046;-70
2023/08/09 04:29:46;;;;;;;3.67;2.47;;;;;;;;;;5029733;28;20045;-71
2023/08/09 04:32:14;;;;;;;4.25;2.30;;;;;;;;;;5030708;28;20049;-71
2023/08/09 04:34:41;;;;;;;4.63;2.40;;;;;;;;;;5030223;28;20041;-71
2023/08/09 04:37:07;;;;;;;3.35;2.00;;;;;;;;;;5030355;28;20046;-70
2023/08/09 04:39:34;;;;;;;3.47;2.25;;;;;;;;;;5029379;28;20042;-71
2023/08/09 04:42:02;;;;;;;3.20;2.10;;;;;;;;;;5030557;28;20055;-71
2023/08/09 04:44:30;;;;;;;4.88;2.55;;;;;;;;;;5029713;28;20046;-71
2023/08/09 04:46:58;;;;;;;4.25;2.20;;;;;;;;;;5030500;28;20046;-71
2023/08/09 04:49:26;;;;;;;5.15;2.47;;;;;;;;;;5029864;28;20065;-71
2023/08/09 04:51:53;;;;;;;3.15;2.20;;;;;;;;;;5029890;28;20041;-71
2023/08/09 04:54:20;;;;;;;3.63;2.00;;;;;;;;;;5029424;28;20050;-71
2023/08/09 04:56:47;;;;;;;5.75;2.72;;;;;;;;;;5029516;28;20053;-71
2023/08/09 04:59:14;;;;;;;7.30;3.22;;;;;;;;;;5029955;28;20045;-71
2023/08/09 05:01:40;;;;;;;4.50;2.20;;;;;;;;;;5029718;28;20136;-71
2023/08/09 05:04:07;;;;;;;3.10;2.20;;;;;;;;;;5030278;28;20172;-71
2023/08/09 05:06:36;;;;;;;5.03;2.28;;;;;;;;;;5030112;28;20415;-71
2023/08/09 05:09:03;;;;;;;2.85;2.10;;;;;;;;;;5029799;28;20530;-71
2023/08/09 05:11:29;;;;;;;4.93;2.30;;;;;;;;;;5028967;28;20045;-71
2023/08/09 05:13:56;;;;;;;3.38;2.10;;;;;;;;;;5030290;28;20048;-71
2023/08/09 05:16:24;;;;;;;3.45;2.20;;;;;;;;;;5029551;28;20053;-71
2023/08/09 05:18:51;;;;;;;2.47;1.83;;;;;;;;;;5029804;28;20042;-70
2023/08/09 05:21:17;;;;;;;3.33;1.98;;;;;;;;;;5029243;28;20045;-71
2023/08/09 05:23:45;;;;;;;3.80;2.00;;;;;;;;;;5029879;28;20388;-70
2023/08/09 05:26:12;;;;;;;4.13;2.30;;;;;;;;;;5029684;28;20056;-71
2023/08/09 05:28:38;;;;;;;3.47;2.00;;;;;;;;;;5029851;28;20041;-71
2023/08/09 05:31:05;;;;;;;2.83;1.92;;;;;;;;;;5029733;28;20132;-71
2023/08/09 05:33:32;;;;;;;3.60;2.15;;;;;;;;;;5029659;28;20495;-71
2023/08/09 05:35:59;;;;;;;5.68;1.98;;;;;;;;;;5030061;28;20423;-71
2023/08/09 05:38:26;;;;;;;2.35;1.73;;;;;;;;;;5029139;28;20107;-71
2023/08/09 05:40:55;;;;;;;3.70;2.08;;;;;;;;;;5029791;28;20056;-71
2023/08/09 05:43:21;;;;;;;6.95;2.15;;;;;;;;;;5029633;28;20045;-71
2023/08/09 05:45:48;;;;;;;2.88;2.00;;;;;;;;;;5029604;28;20199;-71
2023/08/09 05:48:14;;;;;;;5.40;1.90;;;;;;;;;;5029547;28;20041;-71
2023/08/09 05:50:41;;;;;;;1.90;1.73;;;;;;;;;;5029788;28;20052;-71
2023/08/09 05:53:09;;;;;;;4.70;2.17;;;;;;;;;;5028923;28;20056;-71
2023/08/09 05:55:36;;;;;;;4.93;2.28;;;;;;;;;;5029923;28;20053;-71
2023/08/09 05:58:05;;;;;;;5.20;2.00;;;;;;;;;;5029419;28;20422;-70
2023/08/09 06:00:32;;;;;;;3.42;2.03;;;;;;;;;;5029097;28;20051;-71
2023/08/09 06:03:00;;;;;;;3.00;1.80;;;;;;;;;;5029359;28;20483;-71
2023/08/09 06:05:27;;;;;;;3.72;1.90;;;;;;;;;;5029898;28;20052;-71
2023/08/09 06:07:53;;;;;;;3.13;2.00;;;;;;;;;;5031251;28;20045;-71
2023/08/09 06:10:21;;;;;;;2.88;1.77;;;;;;;;;;5048009;28;20063;-70
2023/08/09 06:12:47;;;;;;;8.18;2.00;;;;;;;;;;5047165;28;20076;-71
2023/08/09 06:15:16;;;;;;;1.90;1.65;;;;;;;;;;5049723;28;20052;-70
2023/08/09 06:17:43;;;;;;;2.10;1.60;;;;;;;;;;5046265;28;20053;-69
2023/08/09 06:20:12;;;;;;;2.05;1.60;;;;;;;;;;5048318;28;20136;-70
2023/08/09 06:22:39;;;;;;;2.40;1.77;;;;;;;;;;5048265;28;20503;-70
2023/08/09 06:25:06;;;;;;;2.00;1.63;;;;;;;;;;5050960;28;20041;-70
2023/08/09 06:27:33;;;;;;;4.63;1.48;;;;;;;;;;5048971;28;20210;-69
2023/08/09 06:30:00;;;;;;;2.38;1.90;;;;;;;;;;5050701;28;20060;-70
2023/08/09 06:32:28;;;;;;;2.45;1.90;;;;;;;;;;5048296;28;20501;-70
2023/08/09 06:34:55;;;;;;;2.30;1.60;;;;;;;;;;5047758;28;20476;-69
2023/08/09 06:37:21;;;;;;;2.22;1.70;;;;;;;;;;5051391;28;20056;-69
2023/08/09 06:39:48;;;;;;;1.50;1.40;;;;;;;;;;5050666;28;20048;-69
2023/08/09 06:42:16;;;;;;;2.05;1.63;;;;;;;;;;5051402;28;20044;-68
2023/08/09 06:44:42;;;;;;;2.78;1.83;;;;;;;;;;5048479;28;20049;-68
2023/08/09 06:47:10;;;;;;;3.30;1.85;;;;;;;;;;5044360;28;20612;-68
2023/08/09 06:49:38;;;;;;;2.95;1.80;;;;;;;;;;5049462;28;20132;-68
2023/08/09 06:52:05;;;;;;;8.70;1.88;;;;;;;;;;5049023;28;20208;-69
2023/08/09 06:54:32;;;;;;;3.55;1.88;;;;;;;;;;5047194;28;20055;-69
2023/08/09 06:56:58;;;;;;;2.83;1.55;;;;;;;;;;5043989;28;20124;-66
2023/08/09 06:59:25;;;;;;;4.10;1.63;;;;;;;;;;5044569;28;20135;-66
2023/08/09 07:01:52;;;;;;;3.47;1.63;;;;;;;;;;5047536;28;20095;-68
2023/08/09 07:04:19;;;;;;;2.70;2.08;;;;;;;;;;5040697;28;20049;-67
2023/08/09 07:06:47;;;;;;;4.50;2.63;;;;;;;;;;5038216;28;20427;-68
2023/08/09 07:09:18;;;;;;;2.95;1.48;;;;;;;;;;5044229;28;20157;-69
2023/08/09 07:11:45;;;;;;;1.35;1.25;;;;;;;;;;5036500;28;20052;-68
2023/08/09 07:14:11;;;;;;;2.25;1.50;;;;;;;;;;5034609;28;20045;-69
2023/08/09 07:16:38;;;;;;;3.75;1.63;;;;;;;;;;5048475;28;20063;-69
2023/08/09 07:19:05;;;;;;;4.10;1.60;;;;;;;;;;5044476;28;20056;-69
2023/08/09 07:21:31;;;;;;;1.63;1.40;;;;;;;;;;5048996;28;20045;-68
2023/08/09 07:23:59;;;;;;;2.92;1.30;;;;;;;;;;5049394;28;20049;-68
2023/08/09 07:26:27;;;;;;;3.03;1.50;;;;;;;;;;5050367;28;20048;-70
2023/08/09 07:28:54;;;;;;;1.30;1.15;;;;;;;;;;5049859;28;20049;-68
2023/08/09 07:31:21;;;;;;;1.73;1.17;;;;;;;;;;5049440;28;20419;-69
2023/08/09 07:33:48;;;;;;;1.05;0.90;;;;;;;;;;5037597;28;20478;-70
2023/08/09 07:36:15;;;;;;;1.30;1.02;;;;;;;;;;5047553;28;20376;-70
2023/08/09 07:38:43;;;;;;;1.00;0.90;;;;;;;;;;5049859;28;20056;-70
2023/08/09 07:41:11;;;;;;;1.88;1.10;;;;;;;;;;5049442;28;20479;-69
2023/08/09 07:43:37;;;;;;;2.05;1.05;;;;;;;;;;5049933;28;20049;-69
2023/08/09 07:46:06;;;;;;;3.42;0.95;;;;;;;;;;5048308;28;20150;-69
2023/08/09 07:48:32;;;;;;;2.80;1.00;;;;;;;;;;5048259;28;20048;-68
2023/08/09 07:50:59;;;;;;;1.33;1.10;;;;;;;;;;5049178;28;20044;-68
2023/08/09 07:53:26;;;;;;;2.70;1.13;;;;;;;;;;5047883;28;20073;-68
2023/08/09 07:55:53;;;;;;;1.75;1.13;;;;;;;;;;5049422;28;20044;-68
2023/08/09 07:58:21;;;;;;;1.45;0.95;;;;;;;;;;5049246;28;20460;-68
2023/08/09 08:00:49;;;;;;;2.83;1.30;;;;;;;;;;5046183;28;20056;-70
2023/08/09 08:03:15;;;;;;;2.97;1.00;;;;;;;;;;5030187;28;20045;-69
2023/08/09 08:05:42;;;;;;;3.25;1.20;;;;;;;;;;5047287;28;20059;-68
2023/08/09 08:08:08;;;;;;;1.73;1.20;;;;;;;;;;5049014;28;20156;-69
2023/08/09 08:10:35;;;;;;;1.90;1.00;;;;;;;;;;5048441;28;20057;-68
2023/08/09 08:13:02;;;;;;;2.55;0.80;;;;;;;;;;5048366;28;20426;-69
2023/08/09 08:15:30;;;;;;;1.77;1.10;;;;;;;;;;5048551;28;20414;-69
2023/08/09 08:17:56;;;;;;;2.92;1.17;;;;;;;;;;5048019;28;20502;-69
2023/08/09 08:20:24;;;;;;;1.25;1.05;;;;;;;;;;5048770;28;20049;-69
2023/08/09 08:22:51;;;;;;;1.02;0.88;;;;;;;;;;5049023;28;20391;-68
2023/08/09 08:25:20;;;;;;;2.05;1.00;;;;;;;;;;5046172;28;20367;-69
2023/08/09 08:27:47;;;;;;;1.20;1.00;;;;;;;;;;5048721;28;20041;-70
2023/08/09 08:30:14;;;;;;;1.00;0.90;;;;;;;;;;5047791;28;20055;-70
2023/08/09 08:32:42;;;;;;;1.88;0.88;;;;;;;;;;5044537;28;20056;-70
2023/08/09 08:35:12;;;;;;;0.80;0.70;;;;;;;;;;5041387;28;20041;-70
2023/08/09 08:37:39;;;;;;;1.02;0.90;;;;;;;;;;5047064;28;20106;-70
2023/08/09 08:40:08;;;;;;;1.90;1.10;;;;;;;;;;5048628;28;20052;-70
2023/08/09 08:42:36;;;;;;;0.80;0.80;;;;;;;;;;5039762;28;20662;-69
2023/08/09 08:45:09;;;;;;;1.27;1.17;;;;;;;;;;5049017;28;20049;-71
2023/08/09 08:47:38;;;;;;;1.00;0.90;;;;;;;;;;5046889;28;20061;-70
2023/08/09 08:50:08;;;;;;;1.17;0.80;;;;;;;;;;5047848;28;20117;-70
2023/08/09 08:52:37;;;;;;;1.38;0.90;;;;;;;;;;5048302;28;20053;-69
2023/08/09 08:55:05;;;;;;;1.15;0.80;;;;;;;;;;5047481;28;20052;-69
2023/08/09 08:57:33;;;;;;;0.90;0.90;;;;;;;;;;5047804;28;20492;-70
2023/08/09 09:00:02;;;;;;;0.82;0.82;;;;;;;;;;5046791;28;20048;-70
2023/08/09 09:02:30;;;;;;;0.77;0.77;;;;;;;;;;5046580;28;20049;-70
2023/08/09 09:04:56;;;;;;;1.10;0.90;;;;;;;;;;5040509;28;20536;-70
2023/08/09 09:07:25;;;;;;;0.90;0.90;;;;;;;;;;5045944;28;20051;-70
2023/08/09 09:09:59;;;;;;;1.52;0.85;;;;;;;;;;5033187;28;20053;-70
2023/08/09 09:12:26;;;;;;;2.03;1.00;;;;;;;;;;5047588;28;20052;-70
2023/08/09 09:14:53;;;;;;;1.42;1.00;;;;;;;;;;5048398;28;20041;-70
2023/08/09 09:17:20;;;;;;;1.02;0.88;;;;;;;;;;5048376;28;20072;-70
2023/08/09 09:19:47;;;;;;;1.33;0.80;;;;;;;;;;5038726;28;20044;-70
2023/08/09 09:22:28;;;;;;;1.70;0.90;;;;;;;;;;5036438;28;20045;-70
2023/08/09 09:24:58;;;;;;;1.15;1.05;;;;;;;;;;5047723;28;20474;-70
2023/08/09 09:27:29;;;;;;;1.33;0.90;;;;;;;;;;5047676;28;20392;-70
2023/08/09 09:29:56;;;;;;;2.13;0.82;;;;;;;;;;5047081;28;20056;-69
2023/08/09 09:32:22;;;;;;;1.25;1.13;;;;;;;;;;5034461;28;20144;-70
2023/08/09 09:34:51;;;;;;;1.25;0.90;;;;;;;;;;5046322;28;20475;-69
2023/08/09 09:37:23;;;;;;;0.80;0.80;;;;;;;;;;5043261;28;20067;-69
2023/08/09 09:39:51;;;;;;;0.80;0.80;;;;;;;;;;5042048;28;20484;-69
2023/08/09 09:42:18;;;;;;;0.77;0.77;;;;;;;;;;5045885;28;20064;-69
2023/08/09 09:44:46;;;;;;;1.10;0.82;;;;;;;;;;5045508;28;20213;-69
2023/08/09 09:47:13;;;;;;;0.60;0.60;;;;;;;;;;5052195;28;20128;-69
2023/08/09 09:49:51;;;;;;;0.80;0.68;;;;;;;;;;5046517;28;20041;-69
2023/08/09 09:52:18;;;;;;;1.42;0.73;;;;;;;;;;5040617;28;20072;-69
2023/08/09 09:54:45;;;;;;;1.67;0.70;;;;;;;;;;5039711;28;20056;-72
2023/08/09 09:57:13;;;;;;;1.15;0.80;;;;;;;;;;5047937;28;20068;-72
2023/08/09 09:59:40;;;;;;;0.82;0.73;;;;;;;;;;5048133;28;20048;-72
2023/08/09 10:02:07;;;;;;;0.70;0.70;;;;;;;;;;5045914;28;20103;-71
2023/08/09 10:04:36;;;;;;;1.70;0.90;;;;;;;;;;5039914;28;20056;-72
2023/08/09 10:07:03;;;;;;;1.02;0.75;;;;;;;;;;5052313;28;20091;-72
2023/08/09 10:09:31;;;;;;;0.50;0.50;;;;;;;;;;5055019;22;20085;-72
2023/08/09 10:11:59;;;;;;;0.95;0.60;;;;;;;;;;5019102;28;20042;-72
2023/08/09 10:14:30;;;;;;;0.65;0.52;;;;;;;;;;5027877;28;20049;-69
2023/08/09 10:16:59;;;;;;;0.60;0.60;;;;;;;;;;5021930;28;20045;-66
2023/08/09 10:19:29;;;;;;;1.15;0.82;;;;;;;;;;5017820;28;20077;-68
2023/08/09 10:21:56;;;;;;;0.50;0.50;;;;;;;;;;5029352;28;20081;-67
2023/08/09 10:24:22;;;;;;;0.60;0.60;;;;;;;;;;5031309;28;20490;-66
2023/08/09 10:26:52;;;;;;;0.68;0.60;;;;;;;;;;5032321;28;20484;-65
2023/08/09 10:29:21;;;;;;;1.17;0.65;;;;;;;;;;5027823;28;20124;-66
2023/08/09 10:31:54;;;;;;;2.03;0.60;;;;;;;;;;5026632;28;20048;-66
2023/08/09 10:34:23;;;;;;;0.88;0.68;;;;;;;;;;5025826;28;20053;-65
2023/08/09 10:36:53;;;;;;;0.70;0.70;;;;;;;;;;5030039;28;20145;-66
2023/08/09 10:39:22;;;;;;;0.70;0.60;;;;;;;;;;5027447;28;20134;-66
2023/08/09 10:42:00;;;;;;;1.17;0.75;;;;;;;;;;5030276;28;20475;-66
2023/08/09 10:44:41;;;;;;;3.03;1.10;;;;;;;;;;5026110;28;20271;-66
2023/08/09 10:47:12;;;;;;;3.67;1.20;;;;;;;;;;5026875;28;20050;-66
2023/08/09 10:50:00;;;;;;;1.10;0.82;;;;;;;;;;5021121;28;20502;-65
2023/08/09 10:52:34;;;;;;;1.38;0.70;;;;;;;;;;5026131;28;20049;-66
2023/08/09 10:55:36;;;;;;;1.25;0.90;;;;;;;;;;5025823;28;20042;-67
2023/08/09 10:58:04;;;;;;;2.28;0.95;;;;;;;;;;5019718;28;20077;-66
2023/08/09 11:00:41;;;;;;;1.80;1.00;;;;;;;;;;5029806;28;20053;-66
2023/08/09 11:03:11;;;;;;;1.90;1.13;;;;;;;;;;5022026;28;20041;-66
2023/08/09 11:05:38;;;;;;;1.45;0.82;;;;;;;;;;5018767;28;20037;-66
2023/08/09 11:08:19;;;;;;;1.88;1.00;;;;;;;;;;5029120;28;20446;-67
2023/08/09 11:10:48;;;;;;;1.00;0.90;;;;;;;;;;5029609;28;20042;-66
2023/08/09 11:13:18;;;;;;;0.82;0.60;;;;;;;;;;5030278;28;20419;-66
2023/08/09 11:15:46;;;;;;;1.23;0.73;;;;;;;;;;5029786;28;20041;-66
2023/08/09 11:18:14;;;;;;;0.95;0.70;;;;;;;;;;5028663;28;20132;-66
2023/08/09 11:20:41;;;;;;;1.63;0.88;;;;;;;;;;5025350;28;20075;-66
2023/08/09 11:23:08;;;;;;;1.33;0.70;;;;;;;;;;5020666;28;20045;-66
2023/08/09 11:25:34;;;;;;;2.90;0.75;;;;;;;;;;5020208;28;20133;-66
2023/08/09 11:28:03;;;;;;;2.63;0.98;;;;;;;;;;5029832;28;20140;-66
2023/08/09 11:30:34;;;;;;;0.93;0.70;;;;;;;;;;5029660;28;20041;-66
2023/08/09 11:33:02;;;;;;;1.00;0.80;;;;;;;;;;5030371;28;20482;-66
2023/08/09 11:35:39;;;;;;;1.42;0.80;;;;;;;;;;5028942;28;20080;-66
2023/08/09 11:38:09;;;;;;;2.30;0.90;;;;;;;;;;5027928;28;20053;-66
2023/08/09 11:40:42;;;;;;;0.88;0.70;;;;;;;;;;5023490;28;20049;-66
2023/08/09 11:43:14;;;;;;;1.55;1.00;;;;;;;;;;5017660;28;20056;-66
2023/08/09 11:45:53;;;;;;;1.70;0.77;;;;;;;;;;5025338;28;20475;-66
2023/08/09 11:48:25;;;;;;;2.70;0.70;;;;;;;;;;5023128;28;20041;-66
2023/08/09 11:51:02;;;;;;;0.68;0.60;;;;;;;;;;5026624;28;20071;-66
2023/08/09 11:53:29;;;;;;;0.60;0.60;;;;;;;;;;5016091;28;20041;-66
2023/08/09 11:55:59;;;;;;;0.60;0.60;;;;;;;;;;5029914;28;20128;-66
2023/08/09 11:58:26;;;;;;;0.82;0.60;;;;;;;;;;5028391;28;20413;-66
2023/08/09 12:00:53;;;;;;;1.27;0.50;;;;;;;;;;5020201;28;20136;-66
2023/08/09 12:03:21;;;;;;;0.50;0.50;;;;;;;;;;5025028;28;20077;-66
2023/08/09 12:05:47;;;;;;;0.60;0.60;;;;;;;;;;5027877;28;20113;-66
2023/08/09 12:08:15;;;;;;;0.80;0.50;;;;;;;;;;5027913;28;20045;-66
2023/08/09 12:10:42;;;;;;;0.45;0.45;;;;;;;;;;5022431;28;20067;-66
2023/08/09 12:13:09;;;;;;;1.13;0.80;;;;;;;;;;5023696;28;20045;-66
2023/08/09 12:15:36;;;;;;;0.65;0.55;;;;;;;;;;5029591;28;20646;-68
2023/08/09 12:18:03;;;;;;;0.55;0.52;;;;;;;;;;5018771;28;20377;-68
2023/08/09 12:20:30;;;;;;;0.55;0.55;;;;;;;;;;5022697;28;20049;-67
2023/08/09 12:22:56;;;;;;;0.85;0.60;;;;;;;;;;5028962;28;20438;-68
2023/08/09 12:25:24;;;;;;;0.70;0.60;;;;;;;;;;5030345;28;20055;-68
2023/08/09 12:27:51;;;;;;;1.15;0.60;;;;;;;;;;5022424;28;20053;-68
2023/08/09 12:30:19;;;;;;;2.25;0.60;;;;;;;;;;5016637;28;20551;-68
2023/08/09 12:32:46;;;;;;;0.50;0.50;;;;;;;;;;5018730;28;20072;-68
2023/08/09 12:35:12;;;;;;;1.27;0.60;;;;;;;;;;5017086;28;20129;-68
2023/08/09 12:37:39;;;;;;;0.63;0.52;;;;;;;;;;5024108;28;20037;-67
2023/08/09 12:40:07;;;;;;;0.70;0.50;;;;;;;;;;5024376;28;20041;-68
2023/08/09 12:42:36;;;;;;;0.60;0.60;;;;;;;;;;5030550;28;20192;-68
2023/08/09 12:45:04;;;;;;;0.50;0.50;;;;;;;;;;5031200;28;20053;-67
2023/08/09 12:47:31;;;;;;;0.60;0.60;;;;;;;;;;5031474;28;20063;-66
2023/08/09 12:49:57;;;;;;;1.10;0.60;;;;;;;;;;5030573;28;20053;-67
2023/08/09 12:52:24;;;;;;;0.52;0.52;;;;;;;;;;5030690;28;20503;-66
2023/08/09 12:54:51;;;;;;;0.47;0.47;;;;;;;;;;5030906;28;20495;-66
2023/08/09 12:57:18;;;;;;;0.70;0.50;;;;;;;;;;5030396;28;20049;-67
2023/08/09 12:59:46;;;;;;;0.50;0.50;;;;;;;;;;5030446;28;20064;-66
2023/08/09 13:02:12;;;;;;;2.60;0.57;;;;;;;;;;5030168;28;20384;-66
2023/08/09 13:04:40;;;;;;;0.40;0.40;;;;;;;;;;5030974;28;20508;-67
2023/08/09 13:07:06;;;;;;;0.40;0.40;;;;;;;;;;5030277;28;20055;-66
2023/08/09 13:09:35;;;;;;;0.32;0.32;;;;;;;;;;5030256;28;20629;-66
2023/08/09 13:12:07;;;;;;;0.85;0.60;;;;;;;;;;5029850;28;20087;-67
2023/08/09 13:14:33;;;;;;;;;;;;;;;;;;5030005;28;20060;-68
2023/08/09 13:17:01;;;;;;;0.85;0.57;;;;;;;;;;5029339;28;20370;-67
2023/08/09 13:19:34;;;;;;;1.80;0.80;;;;;;;;;;5030030;28;20053;-68
2023/08/09 13:22:00;;;;;;;1.40;0.77;;;;;;;;;;5030065;28;20056;-67
2023/08/09 13:24:27;;;;;;;0.63;0.55;;;;;;;;;;5030189;28;20105;-68
2023/08/09 13:26:54;;;;;;;1.33;0.50;;;;;;;;;;5029966;28;20045;-67
2023/08/09 13:29:21;;;;;;;0.50;0.50;;;;;;;;;;5029451;28;20066;-68
2023/08/09 13:31:47;;;;;;;0.88;0.60;;;;;;;;;;5029964;28;20053;-68
2023/08/09 13:34:15;;;;;;;0.45;0.45;;;;;;;;;;5029843;28;20049;-68
2023/08/09 13:36:42;;;;;;;0.40;0.40;;;;;;;;;;5030705;28;20056;-68
2023/08/09 13:39:09;;;;;;;0.60;0.60;;;;;;;;;;5029705;28;20141;-67
2023/08/09 13:41:36;;;;;;;0.50;0.50;;;;;;;;;;5030137;28;20057;-66
2023/08/09 13:44:03;;;;;;;0.45;0.45;;;;;;;;;;5029581;28;20052;-66
2023/08/09 13:46:31;;;;;;;1.23;0.60;;;;;;;;;;5030241;28;20422;-67
2023/08/09 13:48:58;;;;;;;1.65;0.70;;;;;;;;;;5029780;28;20052;-66
2023/08/09 13:51:26;;;;;;;0.50;0.50;;;;;;;;;;5030184;28;20049;-66
2023/08/09 13:53:54;;;;;;;0.50;0.50;;;;;;;;;;5029729;28;20391;-67
2023/08/09 13:56:21;;;;;;;0.60;0.60;;;;;;;;;;5030182;28;20056;-67
2023/08/09 13:58:48;;;;;;;0.50;0.50;;;;;;;;;;5030687;28;20049;-66
2023/08/09 14:01:14;;;;;;;0.73;0.55;;;;;;;;;;5030406;28;20057;-66
2023/08/09 14:03:41;;;;;;;0.65;0.65;;;;;;;;;;5030697;28;20060;-68
2023/08/09 14:06:08;;;;;;;2.20;0.80;;;;;;;;;;5030077;28;20045;-66
2023/08/09 14:08:36;;;;;;;2.65;0.90;;;;;;;;;;5030354;28;20383;-66
2023/08/09 14:11:03;;;;;;;1.23;0.80;;;;;;;;;;5029861;28;20059;-67
2023/08/09 14:13:30;;;;;;;1.10;1.00;;;;;;;;;;5031395;28;20534;-66
2023/08/09 14:15:57;;;;;;;1.58;0.95;;;;;;;;;;5029524;28;20060;-66
2023/08/09 14:18:24;;;;;;;1.10;1.00;;;;;;;;;;5029879;28;20053;-66
2023/08/09 14:20:52;;;;;;;1.52;1.05;;;;;;;;;;5029558;28;20095;-66
2023/08/09 14:23:18;;;;;;;1.40;1.00;;;;;;;;;;5029654;28;20054;-66
2023/08/09 14:25:46;;;;;;;1.00;1.00;;;;;;;;;;5028844;28;20411;-66
2023/08/09 14:28:13;;;;;;;2.08;1.10;;;;;;;;;;5032876;28;20073;-67
2023/08/09 14:30:40;;;;;;;1.10;1.00;;;;;;;;;;5032463;28;20511;-67
2023/08/09 14:33:06;;;;;;;1.23;1.00;;;;;;;;;;5033350;28;20052;-66
2023/08/09 14:35:33;;;;;;;1.20;1.10;;;;;;;;;;5032613;28;20055;-67
2023/08/09 14:37:59;;;;;;;3.60;1.17;;;;;;;;;;5033165;28;20051;-67
2023/08/09 14:40:27;;;;;;;1.20;1.00;;;;;;;;;;5032665;28;20140;-67
2023/08/09 14:42:55;;;;;;;1.67;1.00;;;;;;;;;;5032734;28;20055;-67
2023/08/09 14:45:21;;;;;;;2.80;0.90;;;;;;;;;;5033090;28;20047;-66
2023/08/09 14:47:48;;;;;;;1.00;0.88;;;;;;;;;;5032724;28;20402;-67